Time;durP1;ratioP1;P1;durP2;ratioP2;P2;SDS_P1;SDS_P2;PMS_P1;PMS_P2;Temp;Humidity;BMP_temperature;BMP_pressure;BME280_temperature;BME280_humidity;BME280_pressure;Samples;Min_cycle;Max_cycle;Signal;HPM_P1;HPM_P2
2022/04/07 00:00:41;;;;;;;12.15;7.18;;;;;;;10.33;54.71;99356.53;5113035;27;20027;-30
2022/04/07 00:03:07;;;;;;;10.35;7.03;;;;;;;10.34;54.14;99339.50;5131506;27;20027;-29
2022/04/07 00:05:32;;;;;;;11.13;6.72;;;;;;;10.25;54.53;99343.53;5131740;27;20394;-30
2022/04/07 00:07:58;;;;;;;12.15;7.97;;;;;;;9.94;55.42;99345.53;5131648;27;20031;-29
2022/04/07 00:10:23;;;;;;;10.90;6.90;;;;;;;9.81;55.58;99322.63;5131334;27;20533;-29
2022/04/07 00:12:48;;;;;;;10.45;7.00;;;;;;;9.91;55.71;99339.88;5112721;27;20137;-31
2022/04/07 00:15:14;;;;;;;11.82;7.18;;;;;;;9.92;55.60;99310.34;5131138;27;20606;-31
2022/04/07 00:17:39;;;;;;;11.50;7.35;;;;;;;9.81;55.91;99327.94;5130975;27;20023;-33
2022/04/07 00:20:06;;;;;;;10.65;7.50;;;;;;;9.57;56.61;99310.34;5130997;27;20031;-29
2022/04/07 00:22:31;;;;;;;11.52;7.30;;;;;;;9.72;56.54;99317.88;5112827;27;20042;-28
2022/04/07 00:24:57;;;;;;;11.30;7.10;;;;;;;9.37;57.69;99321.31;5130869;27;20031;-28
2022/04/07 00:27:22;;;;;;;11.95;7.47;;;;;;;9.29;57.81;99300.38;5131054;27;20088;-35
2022/04/07 00:29:48;;;;;;;12.07;7.28;;;;;;;9.38;57.84;99320.28;5112433;27;20051;-28
2022/04/07 00:32:13;;;;;;;10.95;7.40;;;;;;;9.43;57.53;99288.47;5130399;27;20423;-33
2022/04/07 00:34:39;;;;;;;11.25;7.68;;;;;;;9.32;57.54;99286.63;5130799;27;20852;-33
2022/04/07 00:37:05;;;;;;;11.73;7.82;;;;;;;9.33;57.91;99299.66;5112082;27;20035;-33
2022/04/07 00:39:31;;;;;;;12.75;7.28;;;;;;;9.15;58.84;99303.22;5112243;27;20546;-28
2022/04/07 00:41:56;;;;;;;12.40;7.20;;;;;;;9.28;58.52;99306.75;5130336;27;20080;-28
2022/04/07 00:44:22;;;;;;;13.20;8.15;;;;;;;9.44;58.15;99306.88;5130556;27;20027;-28
2022/04/07 00:46:48;;;;;;;12.27;8.25;;;;;;;9.29;59.07;99319.00;5130243;27;20023;-30
2022/04/07 00:49:14;;;;;;;11.55;7.72;;;;;;;8.91;59.67;99301.53;5130256;27;20031;-28
2022/04/07 00:51:42;;;;;;;13.13;8.13;;;;;;;9.10;59.02;99289.81;5130713;27;20088;-29
2022/04/07 00:54:09;;;;;;;13.73;7.83;;;;;;;9.22;59.14;99303.13;5095514;27;20026;-28
2022/04/07 00:56:36;;;;;;;13.63;8.20;;;;;;;9.24;59.66;99312.50;5112008;27;20034;-31
2022/04/07 00:59:02;;;;;;;13.38;8.05;;;;;;;9.15;59.58;99297.91;5129878;27;20039;-29
2022/04/07 01:01:28;;;;;;;11.70;7.85;;;;;;;9.24;59.75;99312.50;5111677;27;20087;-28
2022/04/07 01:03:54;;;;;;;12.77;8.38;;;;;;;9.08;60.23;99302.53;5130366;27;20039;-30
2022/04/07 01:06:20;;;;;;;10.88;7.55;;;;;;;9.01;60.10;99289.34;5111665;27;20019;-31
2022/04/07 01:08:46;;;;;;;14.82;8.00;;;;;;;8.96;60.03;99267.09;5130434;27;20095;-32
2022/04/07 01:11:12;;;;;;;12.43;8.43;;;;;;;8.99;60.28;99296.72;5130054;27;20475;-28
2022/04/07 01:13:52;;;;;;;12.63;8.45;;;;;;;9.00;59.97;99262.97;5130256;27;20077;-28
2022/04/07 01:16:20;;;;;;;12.98;7.70;;;;;;;9.06;60.29;99267.38;5130435;27;20026;-29
2022/04/07 01:18:46;;;;;;;12.07;8.07;;;;;;;9.08;60.51;99259.16;5111785;27;20734;-30
2022/04/07 01:21:14;;;;;;;11.75;8.15;;;;;;;8.74;61.37;99249.00;5111420;27;20023;-28
2022/04/07 01:23:50;;;;;;;13.60;8.13;;;;;;;8.74;61.67;99256.97;5111534;27;20034;-28
2022/04/07 01:26:16;;;;;;;16.25;8.98;;;;;;;8.93;61.28;99268.38;5111187;27;20035;-31
2022/04/07 01:28:49;;;;;;;12.63;8.60;;;;;;;8.93;61.34;99278.19;5111568;27;20034;-31
2022/04/07 01:31:14;;;;;;;12.05;7.63;;;;;;;8.77;61.85;99296.41;5111116;27;20027;-28
2022/04/07 01:33:41;;;;;;;11.40;7.95;;;;;;;8.96;61.12;99286.53;5129869;27;20134;-28
2022/04/07 01:36:07;;;;;;;13.32;8.75;;;;;;;8.82;61.69;99277.13;5111226;27;20399;-29
2022/04/07 01:38:32;;;;;;;13.70;8.02;;;;;;;8.82;61.37;99271.81;5129855;27;20034;-32
2022/04/07 01:40:58;;;;;;;10.85;8.02;;;;;;;8.71;62.04;99259.31;5129180;27;20023;-28
2022/04/07 01:43:24;;;;;;;13.38;8.68;;;;;;;8.64;62.19;99248.75;5129750;27;20030;-29
2022/04/07 01:45:51;;;;;;;14.60;8.65;;;;;;;8.76;62.42;99256.75;5129554;27;20102;-28
2022/04/07 01:48:19;;;;;;;14.80;8.57;;;;;;;8.75;62.26;99260.47;5129453;27;20031;-30
2022/04/07 01:50:46;;;;;;;12.55;7.82;;;;;;;8.61;62.57;99255.31;5129494;27;20026;-32
2022/04/07 01:53:12;;;;;;;12.35;7.70;;;;;;;8.58;62.78;99262.94;5128861;27;20081;-30
2022/04/07 01:55:40;;;;;;;15.95;9.13;;;;;;;8.67;62.79;99252.81;5129042;27;20058;-30
2022/04/07 01:58:05;;;;;;;14.32;7.85;;;;;;;8.87;62.26;99236.56;5129917;27;20110;-29
2022/04/07 02:00:31;;;;;;;13.73;8.50;;;;;;;8.74;62.10;99222.41;5129670;27;20118;-29
2022/04/07 02:02:56;;;;;;;12.73;8.43;;;;;;;8.78;61.73;99218.28;5110721;27;20034;-30
2022/04/07 02:05:22;;;;;;;13.63;8.70;;;;;;;8.75;61.76;99223.25;5129351;27;20410;-32
2022/04/07 02:07:48;;;;;;;11.20;7.47;;;;;;;8.75;62.17;99229.38;5128909;27;20019;-30
2022/04/07 02:10:15;;;;;;;14.68;8.95;;;;;;;8.63;62.68;99215.25;5129234;27;20550;-28
2022/04/07 02:12:42;;;;;;;11.77;8.35;;;;;;;8.40;62.92;99200.00;5129207;27;20023;-28
2022/04/07 02:15:09;;;;;;;12.63;8.63;;;;;;;8.58;62.41;99186.69;5110301;27;20023;-28
2022/04/07 02:17:35;;;;;;;12.23;7.63;;;;;;;8.36;62.67;99161.66;5129280;27;20077;-35
2022/04/07 02:20:04;;;;;;;12.68;8.57;;;;;;;8.43;62.44;99157.88;5110341;27;20031;-31
2022/04/07 02:22:30;;;;;;;14.93;8.05;;;;;;;8.36;62.25;99162.44;5110156;27;20031;-30
2022/04/07 02:24:56;;;;;;;14.93;10.60;;;;;;;8.42;62.01;99160.78;5128486;27;20490;-28
2022/04/07 02:27:22;;;;;;;15.30;11.10;;;;;;;8.58;62.34;99188.53;5110238;27;20054;-33
2022/04/07 02:29:48;;;;;;;16.30;11.68;;;;;;;8.65;61.51;99192.72;5110157;28;20059;-31
2022/04/07 02:32:13;;;;;;;17.55;11.35;;;;;;;8.65;61.34;99170.63;5128361;27;20061;-34
2022/04/07 02:34:42;;;;;;;60.60;36.65;;;;;;;8.73;61.52;99188.91;5128208;27;20039;-30
2022/04/07 02:37:09;;;;;;;108.07;54.97;;;;;;;8.61;61.50;99196.06;5109812;28;20058;-31
2022/04/07 02:39:34;;;;;;;78.35;54.42;;;;;;;8.63;61.28;99193.97;5110313;28;20031;-35
2022/04/07 02:42:00;;;;;;;17.67;13.48;;;;;;;8.56;61.19;99148.91;5128807;27;20030;-30
2022/04/07 02:44:25;;;;;;;16.67;11.50;;;;;;;8.62;61.30;99155.13;5128903;28;20135;-29
2022/04/07 02:46:51;;;;;;;15.05;9.18;;;;;;;8.32;61.94;99136.56;5109684;28;20406;-30
2022/04/07 02:49:17;;;;;;;14.73;9.45;;;;;;;8.44;61.84;99138.25;5128438;28;20832;-31
2022/04/07 02:51:44;;;;;;;16.02;9.27;;;;;;;8.44;61.40;99132.94;5128016;28;20127;-34
2022/04/07 02:54:09;;;;;;;13.18;8.65;;;;;;;8.70;60.76;99133.53;5110039;28;20027;-28
2022/04/07 02:56:35;;;;;;;12.10;8.35;;;;;;;8.14;62.05;99117.00;5128505;28;20034;-30
2022/04/07 02:59:00;;;;;;;12.85;9.20;;;;;;;8.29;61.85;99116.56;5128234;28;20023;-28
2022/04/07 03:01:26;;;;;;;13.82;8.55;;;;;;;8.40;61.46;99115.00;5109842;28;20121;-30
2022/04/07 03:03:55;;;;;;;13.30;8.73;;;;;;;8.50;60.85;99095.84;5109769;28;20493;-28
2022/04/07 03:06:24;;;;;;;13.27;8.43;;;;;;;8.23;61.51;99112.16;5112631;27;20023;-30
2022/04/07 03:08:53;;;;;;;13.82;9.43;;;;;;;8.56;60.69;99145.41;5113554;27;20073;-30
2022/04/07 03:11:18;;;;;;;16.00;8.73;;;;;;;8.49;60.71;99126.91;5113863;27;20050;-31
2022/04/07 03:13:44;;;;;;;13.82;9.35;;;;;;;8.80;59.79;99117.81;5113767;27;20042;-31
2022/04/07 03:16:09;;;;;;;17.45;10.82;;;;;;;8.67;59.89;99122.56;5132147;27;20027;-28
2022/04/07 03:18:36;;;;;;;14.82;9.13;;;;;;;8.43;60.09;99104.72;5132118;27;20092;-32
2022/04/07 03:21:03;;;;;;;17.65;11.50;;;;;;;8.52;60.25;99117.69;5096505;27;20121;-28
2022/04/07 03:23:28;;;;;;;118.22;71.47;;;;;;;8.66;60.29;99124.41;5113534;27;20088;-33
2022/04/07 03:25:54;;;;;;;308.67;145.95;;;;;;;8.73;60.08;99130.44;5131830;27;20035;-29
2022/04/07 03:28:20;;;;;;;51.13;32.08;;;;;;;8.49;60.31;99112.84;5131951;27;20069;-29
2022/04/07 03:30:45;;;;;;;33.22;17.73;;;;;;;8.71;60.01;99105.94;5130593;27;20023;-29
2022/04/07 03:33:11;;;;;;;176.85;60.47;;;;;;;8.60;60.26;99101.41;5111694;27;20520;-30
2022/04/07 03:35:36;;;;;;;95.68;40.35;;;;;;;8.40;60.23;99072.47;5131525;27;20027;-34
2022/04/07 03:38:04;;;;;;;135.27;57.45;;;;;;;8.70;59.54;99088.34;5131933;27;20054;-28
2022/04/07 03:40:29;;;;;;;35.65;18.88;;;;;;;8.55;59.63;99090.66;5113225;27;20031;-29
2022/04/07 03:42:56;;;;;;;87.10;43.50;;;;;;;8.67;59.83;99104.78;5112807;27;20430;-28
2022/04/07 03:45:21;;;;;;;24.20;14.60;;;;;;;8.61;59.49;99085.22;5113046;27;20031;-30
2022/04/07 03:47:47;;;;;;;18.20;11.27;;;;;;;8.71;58.75;99082.00;5131452;27;20034;-29
2022/04/07 03:50:12;;;;;;;29.17;17.15;;;;;;;8.97;58.58;99103.84;5131337;27;20375;-33
2022/04/07 03:52:38;;;;;;;81.78;31.98;;;;;;;8.82;58.42;99115.75;5131453;27;20023;-30
2022/04/07 03:55:05;;;;;;;155.02;60.35;;;;;;;9.12;58.09;99137.97;5131404;27;20044;-29
2022/04/07 03:57:31;;;;;;;106.47;50.72;;;;;;;9.00;58.17;99116.69;5112827;27;20046;-29
2022/04/07 03:59:57;;;;;;;67.72;36.17;;;;;;;8.74;58.71;99110.78;5131422;27;20427;-29
2022/04/07 04:02:22;;;;;;;27.48;14.38;;;;;;;8.62;58.96;99075.41;5112712;27;20122;-28
2022/04/07 04:04:48;;;;;;;21.88;13.57;;;;;;;8.76;59.08;99108.69;5131218;27;20683;-28
2022/04/07 04:07:13;;;;;;;38.55;21.45;;;;;;;8.74;59.42;99078.06;5131474;27;20550;-29
2022/04/07 04:09:39;;;;;;;26.52;16.40;;;;;;;8.84;59.67;99041.88;5131382;27;20127;-30
2022/04/07 04:12:05;;;;;;;18.83;12.27;;;;;;;8.87;59.38;99050.44;5112785;27;20030;-32
2022/04/07 04:14:30;;;;;;;21.30;12.85;;;;;;;8.71;59.86;99063.41;5112284;27;20038;-33
2022/04/07 04:16:56;;;;;;;19.67;12.00;;;;;;;8.81;58.98;99058.31;5129998;27;20109;-30
2022/04/07 04:19:21;;;;;;;15.77;10.65;;;;;;;8.82;59.49;99038.66;5130656;27;20035;-28
2022/04/07 04:21:47;;;;;;;18.40;12.32;;;;;;;9.15;59.10;99042.53;5130825;27;20115;-30
2022/04/07 04:24:12;;;;;;;18.92;11.50;;;;;;;9.07;59.20;99034.91;5130843;27;20019;-34
2022/04/07 04:26:38;;;;;;;18.58;10.85;;;;;;;9.18;58.50;99047.41;5112428;27;20033;-31
2022/04/07 04:29:04;;;;;;;16.17;10.18;;;;;;;8.90;58.18;99034.84;5112254;27;20554;-29
2022/04/07 04:31:30;;;;;;;19.60;12.05;;;;;;;8.96;59.09;99075.66;5130642;27;20093;-29
2022/04/07 04:33:56;;;;;;;19.27;12.07;;;;;;;8.92;60.10;99058.53;5130490;27;20054;-32
2022/04/07 04:36:22;;;;;;;19.17;11.20;;;;;;;8.84;59.69;99031.25;5130683;27;20043;-31
2022/04/07 04:38:48;;;;;;;21.25;12.30;;;;;;;9.02;59.54;99037.50;5094980;27;20029;-30
2022/04/07 04:41:15;;;;;;;20.35;12.75;;;;;;;9.15;59.18;99021.25;5130617;27;20039;-29
2022/04/07 04:43:41;;;;;;;20.40;12.32;;;;;;;8.99;59.76;99008.69;5111973;27;20031;-33
2022/04/07 04:46:07;;;;;;;21.38;12.38;;;;;;;9.25;59.19;99042.78;5111736;27;20061;-29
2022/04/07 04:48:33;;;;;;;21.52;13.70;;;;;;;9.31;59.28;99062.28;5111794;27;20027;-30
2022/04/07 04:50:59;;;;;;;19.90;12.85;;;;;;;9.30;59.06;99055.38;5129875;27;20120;-33
2022/04/07 04:53:24;;;;;;;21.02;12.40;;;;;;;9.17;58.23;99044.97;5111890;27;20498;-34
2022/04/07 04:55:50;;;;;;;32.55;19.88;;;;;;;9.42;58.30;99058.00;5130438;27;20027;-28
2022/04/07 04:58:16;;;;;;;25.25;17.63;;;;;;;9.24;58.72;99043.00;5130149;27;20027;-29
2022/04/07 05:00:42;;;;;;;23.75;16.00;;;;;;;9.38;59.09;99038.22;5111689;27;20201;-28
2022/04/07 05:03:08;;;;;;;30.35;20.25;;;;;;;9.41;58.95;99040.41;5129668;27;20098;-28
2022/04/07 05:05:33;;;;;;;27.42;17.63;;;;;;;9.14;58.78;99024.97;5130222;27;20027;-28
2022/04/07 05:07:59;;;;;;;24.27;15.35;;;;;;;9.58;58.63;99035.97;5130072;27;20090;-29
2022/04/07 05:10:25;;;;;;;22.63;14.77;;;;;;;9.64;58.08;99042.16;5130243;27;20039;-36
2022/04/07 05:12:54;;;;;;;16.65;12.23;;;;;;;9.59;57.55;99048.22;5094198;27;20023;-29
2022/04/07 05:15:20;;;;;;;22.55;13.57;;;;;;;9.90;57.27;99030.13;5111349;27;20573;-32
2022/04/07 05:17:50;;;;;;;18.45;11.52;;;;;;;9.81;57.39;99002.28;5129867;27;20057;-29
2022/04/07 05:20:16;;;;;;;28.45;21.08;;;;;;;9.74;57.55;99026.38;5129760;27;20626;-30
2022/04/07 05:22:42;;;;;;;36.13;27.67;;;;;;;9.93;56.77;99040.31;5111492;27;20423;-29
2022/04/07 05:25:08;;;;;;;25.67;18.02;;;;;;;9.91;56.50;99026.44;5129405;27;20031;-29
2022/04/07 05:27:36;;;;;;;36.15;19.75;;;;;;;10.01;56.57;98999.97;5129672;27;20560;-28
2022/04/07 05:30:06;;;;;;;29.95;18.10;;;;;;;10.17;56.13;99002.88;5128405;27;20529;-33
2022/04/07 05:32:32;;;;;;;22.88;14.77;;;;;;;10.36;56.12;99001.63;5129633;27;20058;-31
2022/04/07 05:34:57;;;;;;;19.58;12.23;;;;;;;10.25;55.26;98994.47;5128957;27;20085;-28
2022/04/07 05:37:24;;;;;;;20.90;13.43;;;;;;;10.14;54.90;98996.19;5129407;27;20456;-32
2022/04/07 05:39:51;;;;;;;24.02;15.18;;;;;;;10.03;56.09;99008.53;5129225;27;20035;-32
2022/04/07 05:42:17;;;;;;;22.23;12.77;;;;;;;10.27;55.47;99022.47;5110801;27;20485;-30
2022/04/07 05:44:43;;;;;;;21.92;12.38;;;;;;;10.31;55.54;99022.84;5110428;27;20034;-28
2022/04/07 05:47:08;;;;;;;22.08;13.57;;;;;;;10.66;54.41;98995.09;5129071;27;20041;-29
2022/04/07 05:49:34;;;;;;;15.63;11.35;;;;;;;10.77;53.20;98980.88;5129523;27;20168;-28
2022/04/07 05:52:02;;;;;;;19.35;11.43;;;;;;;10.70;53.17;98966.88;5129102;27;20045;-28
2022/04/07 05:54:27;;;;;;;;;;;;;;;10.76;54.30;98986.44;5129642;27;20111;-30
2022/04/07 05:56:53;;;;;;;19.17;11.93;;;;;;;10.96;53.09;98996.56;5128877;27;19997;-31
2022/04/07 05:59:18;;;;;;;19.75;13.23;;;;;;;10.73;52.55;98987.75;5128795;27;20128;-29
2022/04/07 06:01:44;;;;;;;18.92;12.93;;;;;;;11.18;52.20;98970.69;5129099;27;20531;-28
2022/04/07 06:04:09;;;;;;;18.90;12.27;;;;;;;11.06;52.46;98970.03;5129111;27;20025;-29
2022/04/07 06:06:35;;;;;;;17.23;10.98;;;;;;;11.38;51.53;98958.63;5129062;27;20042;-31
2022/04/07 06:09:00;;;;;;;17.60;11.98;;;;;;;11.23;51.49;98938.72;5128339;27;20029;-29
2022/04/07 06:11:26;;;;;;;20.48;12.20;;;;;;;11.05;52.09;98925.72;5110158;27;20030;-34
2022/04/07 06:13:51;;;;;;;18.75;11.85;;;;;;;11.26;51.64;98924.09;5128674;27;20026;-29
2022/04/07 06:16:16;;;;;;;24.35;15.10;;;;;;;10.75;51.92;98932.31;5128872;27;20042;-35
2022/04/07 06:18:42;;;;;;;38.00;25.73;;;;;;;10.79;54.96;98921.97;5128620;27;20023;-29
2022/04/07 06:21:07;;;;;;;25.10;16.25;;;;;;;10.52;56.89;98937.84;5128552;27;20038;-28
2022/04/07 06:23:33;;;;;;;20.77;15.02;;;;;;;10.45;57.16;98938.84;5128755;27;20034;-30
2022/04/07 06:25:58;;;;;;;26.63;21.88;;;;;;;10.75;57.05;98953.63;5128723;27;20084;-31
2022/04/07 06:28:24;;;;;;;30.92;19.17;;;;;;;10.92;56.57;98947.44;5109780;27;20024;-30
2022/04/07 06:30:51;;;;;;;33.05;26.02;;;;;;;11.05;55.39;98947.06;5109403;27;20039;-28
2022/04/07 06:33:18;;;;;;;38.08;29.42;;;;;;;10.94;54.89;98956.81;5109893;27;20046;-28
2022/04/07 06:35:43;;;;;;;19.73;13.07;;;;;;;10.98;54.33;98951.78;5110083;28;20039;-29
2022/04/07 06:38:09;;;;;;;62.15;39.45;;;;;;;11.29;54.24;98946.78;5109993;28;20079;-28
2022/04/07 06:40:34;;;;;;;39.90;28.30;;;;;;;11.49;53.63;98943.53;5128106;27;20111;-36
2022/04/07 06:43:00;;;;;;;25.33;17.17;;;;;;;11.61;51.83;98933.50;5128083;27;20512;-30
2022/04/07 06:45:27;;;;;;;21.70;15.20;;;;;;;11.34;50.78;98920.97;5128725;27;20402;-31
2022/04/07 06:47:53;;;;;;;20.27;13.32;;;;;;;11.28;50.80;98900.63;5110093;28;20058;-30
2022/04/07 06:50:19;;;;;;;21.30;14.30;;;;;;;11.30;50.80;98922.53;5128430;28;20054;-30
2022/04/07 06:52:45;;;;;;;21.95;13.65;;;;;;;11.43;50.50;98919.44;5109631;28;20062;-28
2022/04/07 06:55:12;;;;;;;26.00;16.55;;;;;;;11.67;51.09;98913.78;5128054;28;20059;-32
2022/04/07 06:57:57;;;;;;;28.10;17.63;;;;;;;11.90;50.48;98918.00;5109399;28;20034;-28
2022/04/07 07:34:48;;;;;;;18.35;12.02;;;;;;;13.51;45.62;98857.69;5094252;28;20066;-30
2022/04/07 07:37:17;;;;;;;16.52;11.75;;;;;;;13.46;45.56;98855.81;5083809;28;20074;-29
2022/04/07 07:39:43;;;;;;;19.35;12.80;;;;;;;13.55;45.59;98856.09;5086748;28;20032;-28
2022/04/07 07:42:08;;;;;;;18.48;11.85;;;;;;;13.96;43.99;98848.00;5086841;28;20054;-31
2022/04/07 07:44:33;;;;;;;17.20;11.50;;;;;;;14.26;43.82;98847.16;5085171;28;20411;-30
2022/04/07 07:46:59;;;;;;;20.17;12.52;;;;;;;14.55;43.20;98845.72;5086750;28;20029;-30
2022/04/07 07:49:24;;;;;;;18.13;11.95;;;;;;;14.54;42.21;98839.53;5086485;28;20081;-40
2022/04/07 07:51:51;;;;;;;18.83;12.20;;;;;;;14.53;45.11;98840.63;5086677;28;20492;-31
2022/04/07 07:54:17;;;;;;;18.15;12.13;;;;;;;14.04;44.62;98815.28;5088952;28;20408;-28
2022/04/07 07:56:43;;;;;;;17.77;11.52;;;;;;;14.12;45.11;98797.03;5090651;28;20044;-28
2022/04/07 07:59:08;;;;;;;18.38;12.20;;;;;;;14.25;44.40;98823.28;5090029;28;20035;-28
2022/04/07 08:01:34;;;;;;;21.42;14.30;;;;;;;14.46;43.49;98807.91;5089874;28;20462;-32
2022/04/07 08:03:59;;;;;;;34.92;20.52;;;;;;;14.46;42.38;98789.94;5089865;28;20721;-30
2022/04/07 08:06:25;;;;;;;62.15;39.63;;;;;;;14.54;43.62;98793.13;5089126;28;20099;-29
2022/04/07 08:08:50;;;;;;;53.85;38.53;;;;;;;14.30;43.50;98777.66;5089657;28;20093;-32
2022/04/07 08:11:16;;;;;;;64.85;30.83;;;;;;;14.70;42.98;98785.81;5089748;28;20499;-32
2022/04/07 08:13:41;;;;;;;108.38;39.70;;;;;;;15.43;43.27;98775.09;5089528;28;20020;-29
2022/04/07 08:16:07;;;;;;;108.22;29.38;;;;;;;15.43;41.50;98771.59;5089739;28;20073;-28
2022/04/07 08:18:32;;;;;;;81.18;25.27;;;;;;;15.84;41.95;98765.88;5089349;28;20081;-29
2022/04/07 08:20:57;;;;;;;86.05;29.73;;;;;;;16.23;41.84;98762.97;5089276;28;20057;-31
2022/04/07 08:23:24;;;;;;;23.13;13.32;;;;;;;16.44;40.56;98762.72;5089473;28;20035;-29
2022/04/07 08:25:49;;;;;;;28.38;16.92;;;;;;;16.39;39.96;98755.53;5089564;28;20106;-29
2022/04/07 08:28:15;;;;;;;29.15;18.20;;;;;;;16.84;40.27;98747.13;5089318;28;20749;-28
2022/04/07 08:30:40;;;;;;;22.85;13.93;;;;;;;16.37;39.21;98751.53;5089278;28;20024;-36
2022/04/07 08:33:06;;;;;;;23.65;15.57;;;;;;;16.81;39.53;98735.03;5089647;28;20032;-28
2022/04/07 08:35:31;;;;;;;32.60;21.25;;;;;;;17.06;39.20;98722.25;5097722;28;20044;-34
2022/04/07 08:37:57;;;;;;;16.30;10.95;;;;;;;16.72;37.93;98727.91;5110164;28;20027;-29
2022/04/07 08:40:22;;;;;;;19.50;12.63;;;;;;;16.90;38.65;98723.59;5091032;28;20034;-30
2022/04/07 08:42:48;;;;;;;28.30;19.25;;;;;;;16.99;38.34;98713.78;5109730;28;20023;-28
2022/04/07 08:45:14;;;;;;;43.20;36.17;;;;;;;17.83;37.20;98720.94;5091022;28;20035;-29
2022/04/07 08:47:40;;;;;;;18.95;12.40;;;;;;;18.33;36.58;98714.78;5109791;28;20533;-29
2022/04/07 08:50:07;;;;;;;29.05;23.77;;;;;;;18.46;36.27;98722.88;5090626;28;20114;-28
2022/04/07 08:52:34;;;;;;;17.08;12.43;;;;;;;18.36;36.85;98712.28;5109250;28;20491;-28
2022/04/07 08:55:00;;;;;;;50.67;32.20;;;;;;;18.09;36.57;98706.97;5091001;28;20027;-29
2022/04/07 08:57:27;;;;;;;20.85;12.52;;;;;;;17.51;37.60;98713.69;5090680;28;20038;-28
2022/04/07 08:59:53;;;;;;;54.55;25.98;;;;;;;17.70;37.90;98698.25;5090119;28;20020;-29
2022/04/07 09:02:18;;;;;;;32.38;23.92;;;;;;;17.52;36.97;98686.44;5109056;28;20019;-29
2022/04/07 09:04:44;;;;;;;25.13;14.27;;;;;;;17.46;37.23;98690.34;5108751;28;20442;-32
2022/04/07 09:07:13;;;;;;;35.38;18.42;;;;;;;17.58;36.79;98692.53;5090941;28;20559;-30
2022/04/07 09:09:38;;;;;;;36.45;17.85;;;;;;;17.89;36.92;98676.59;5090529;28;20488;-30
2022/04/07 09:12:05;;;;;;;19.15;11.18;;;;;;;18.19;36.22;98685.94;5108977;28;20065;-28
2022/04/07 09:14:35;;;;;;;16.38;9.35;;;;;;;18.49;35.23;98691.78;5090496;28;20026;-30
2022/04/07 09:17:01;;;;;;;21.58;10.57;;;;;;;18.52;36.42;98685.75;5108884;28;20114;-32
2022/04/07 09:19:30;;;;;;;23.80;11.40;;;;;;;18.48;34.99;98661.28;5090409;28;20023;-31
2022/04/07 09:22:10;;;;;;;38.70;20.33;;;;;;;18.33;35.28;98658.13;5109146;28;20036;-34
2022/04/07 09:24:40;;;;;;;17.25;10.63;;;;;;;17.70;35.79;98632.75;5090439;28;20045;-29
2022/04/07 09:27:12;;;;;;;24.13;13.35;;;;;;;18.16;35.98;98637.19;5090235;28;20028;-29
2022/04/07 09:29:42;;;;;;;40.13;20.20;;;;;;;17.88;36.37;98637.25;5108651;28;20035;-32
2022/04/07 09:32:28;;;;;;;17.80;10.35;;;;;;;17.70;37.12;98619.28;5090298;28;20642;-36
2022/04/07 09:35:01;;;;;;;79.93;32.95;;;;;;;18.10;36.40;98593.31;5108172;28;20047;-30
2022/04/07 09:37:29;;;;;;;25.70;12.32;;;;;;;18.27;37.89;98606.97;5090188;28;20032;-29
2022/04/07 09:40:12;;;;;;;38.65;16.75;;;;;;;18.45;35.24;98586.31;5090169;28;20139;-28
2022/04/07 09:42:41;;;;;;;36.35;18.95;;;;;;;18.39;36.10;98592.16;5090070;28;20036;-30
2022/04/07 09:45:11;;;;;;;18.58;11.00;;;;;;;18.11;35.43;98586.06;5090025;28;20032;-28
2022/04/07 09:47:43;;;;;;;18.83;11.23;;;;;;;17.92;35.45;98594.28;5089841;28;20083;-29
2022/04/07 09:50:19;;;;;;;33.35;17.27;;;;;;;17.72;36.03;98590.09;5089735;28;20035;-29
2022/04/07 09:53:00;;;;;;;27.23;15.32;;;;;;;17.63;35.93;98601.59;5108063;28;20024;-31
2022/04/07 09:55:29;;;;;;;53.22;24.15;;;;;;;17.79;36.69;98567.00;5108428;28;20031;-29
2022/04/07 09:57:56;;;;;;;18.60;10.88;;;;;;;17.51;35.97;98551.97;5089940;28;20502;-31
2022/04/07 10:00:21;;;;;;;47.13;23.60;;;;;;;17.30;36.57;98524.66;5108289;28;20058;-28
2022/04/07 10:02:48;;;;;;;22.08;12.30;;;;;;;17.68;36.72;98544.06;5108006;28;20555;-30
2022/04/07 10:05:15;;;;;;;15.82;9.25;;;;;;;17.47;37.55;98546.41;5089485;28;20503;-31
2022/04/07 10:07:42;;;;;;;14.52;8.90;;;;;;;17.58;37.48;98542.38;5089693;28;20107;-29
2022/04/07 10:10:09;;;;;;;17.17;9.83;;;;;;;17.39;37.90;98544.44;5089632;28;20023;-33
2022/04/07 10:12:36;;;;;;;16.75;9.48;;;;;;;17.11;38.79;98570.56;5087560;28;20043;-29
2022/04/07 10:15:05;;;;;;;13.43;8.52;;;;;;;16.78;39.97;98575.97;5105815;28;20066;-30
2022/04/07 10:17:31;;;;;;;17.10;9.43;;;;;;;16.61;40.96;98546.91;5106068;28;20047;-31
2022/04/07 10:20:09;;;;;;;12.15;8.05;;;;;;;16.62;40.11;98535.84;5087927;28;20119;-28
2022/04/07 10:22:50;;;;;;;13.82;8.55;;;;;;;16.78;40.78;98541.78;5089287;28;20460;-32
2022/04/07 10:25:17;;;;;;;22.20;14.02;;;;;;;16.89;39.27;98499.31;5107192;28;20019;-30
2022/04/07 10:27:51;;;;;;;21.50;13.03;;;;;;;16.92;38.11;98504.13;5107547;28;20027;-30
2022/04/07 10:30:17;;;;;;;23.23;12.82;;;;;;;17.10;38.81;98490.84;5088689;28;20036;-31
2022/04/07 10:32:46;;;;;;;15.00;9.45;;;;;;;17.30;39.71;98486.94;5107513;28;20088;-30
2022/04/07 10:35:31;;;;;;;18.52;9.48;;;;;;;17.42;40.55;98500.69;5089012;28;20529;-28
2022/04/07 10:37:58;;;;;;;11.80;8.25;;;;;;;16.91;39.34;98501.72;5088849;28;20461;-30
2022/04/07 10:40:49;;;;;;;15.57;7.43;;;;;;;16.79;40.76;98539.88;5088759;28;20036;-31
2022/04/07 10:43:14;;;;;;;16.55;9.38;;;;;;;16.56;41.89;98544.31;5089040;28;20034;-29
2022/04/07 10:45:44;;;;;;;13.48;8.65;;;;;;;16.39;43.66;98523.34;5107424;28;20027;-35
2022/04/07 10:48:28;;;;;;;17.48;9.27;;;;;;;16.21;42.27;98479.25;5107092;28;20158;-31
2022/04/07 10:51:03;;;;;;;14.48;8.65;;;;;;;16.34;41.28;98472.31;5088779;28;20114;-34
2022/04/07 10:53:33;;;;;;;14.13;9.20;;;;;;;16.46;41.76;98443.84;5107351;28;20024;-30
2022/04/07 10:56:32;;;;;;;14.02;8.77;;;;;;;16.92;40.12;98460.22;5107563;28;20082;-34
2022/04/07 10:59:10;;;;;;;15.20;9.40;;;;;;;17.00;38.70;98460.34;5107467;28;20031;-28
2022/04/07 11:01:42;;;;;;;11.98;8.35;;;;;;;17.17;39.47;98483.19;5107400;28;20146;-30
2022/04/07 11:04:22;;;;;;;15.70;8.40;;;;;;;17.51;39.31;98487.28;5107474;28;20468;-28
2022/04/07 11:07:07;;;;;;;12.90;7.88;;;;;;;17.93;37.95;98488.00;5107396;28;20031;-29
2022/04/07 11:10:00;;;;;;;15.02;8.57;;;;;;;17.84;38.39;98482.56;5089162;28;20030;-35
2022/04/07 11:12:28;;;;;;;16.42;10.60;;;;;;;17.97;39.54;98472.81;5088752;28;20028;-28
2022/04/07 11:15:13;;;;;;;18.00;11.60;;;;;;;17.77;40.26;98468.66;5088734;28;20130;-31
2022/04/07 11:17:41;;;;;;;19.23;12.27;;;;;;;17.25;40.72;98482.47;5107527;28;20115;-31
2022/04/07 11:20:19;;;;;;;18.58;11.63;;;;;;;17.55;39.91;98496.38;5088581;28;20406;-28
2022/04/07 11:22:53;;;;;;;17.60;11.40;;;;;;;17.24;40.92;98500.53;5107298;28;20716;-28
2022/04/07 11:25:46;;;;;;;19.98;11.90;;;;;;;17.59;43.98;98495.47;5088665;28;20517;-29
2022/04/07 11:28:20;;;;;;;15.45;10.93;;;;;;;17.63;41.63;98480.28;5089978;28;20046;-28
2022/04/07 11:31:00;;;;;;;17.67;10.85;;;;;;;18.08;40.47;98484.94;5111232;28;20491;-32
2022/04/07 11:33:28;;;;;;;15.07;10.65;;;;;;;18.26;40.55;98473.16;5109926;28;20042;-32
2022/04/07 11:35:59;;;;;;;21.10;11.40;;;;;;;18.54;39.16;98480.28;5110613;28;20047;-29
2022/04/07 11:38:32;;;;;;;15.77;11.35;;;;;;;18.52;38.13;98466.31;5110409;28;20027;-33
2022/04/07 11:41:09;;;;;;;16.75;11.05;;;;;;;18.82;38.85;98470.91;5110476;28;20032;-34
2022/04/07 11:43:37;;;;;;;16.75;11.02;;;;;;;19.15;38.08;98461.66;5110784;28;20023;-31
2022/04/07 11:46:04;;;;;;;;;;;;;;;19.53;37.04;98480.75;5111585;28;20063;-29
2022/04/07 11:48:42;;;;;;;15.13;11.30;;;;;;;19.51;36.74;98479.50;5126501;27;19915;-29
2022/04/07 11:51:17;;;;;;;16.27;11.40;;;;;;;19.53;36.13;98463.75;5092293;28;20055;-28
2022/04/07 11:53:52;;;;;;;16.35;11.55;;;;;;;19.66;38.55;98466.31;5110765;28;20035;-29
2022/04/07 11:56:25;;;;;;;17.88;11.40;;;;;;;19.49;35.47;98477.09;5092071;28;20848;-28
2022/04/07 11:58:58;;;;;;;14.90;10.25;;;;;;;19.30;36.77;98484.72;5110253;28;20031;-28
2022/04/07 12:01:24;;;;;;;15.43;10.32;;;;;;;19.61;34.84;98473.78;5092007;28;20024;-28